Time;durP1;ratioP1;P1;durP2;ratioP2;P2;SDS_P1;SDS_P2;PMS_P1;PMS_P2;Temp;Humidity;BMP_temperature;BMP_pressure;BME280_temperature;BME280_humidity;BME280_pressure;Samples;Min_cycle;Max_cycle;Signal;HPM_P1;HPM_P2
2021/09/22 00:01:03;;;;;;;4.72;2.00;;;;;;;6.68;97.82;143903.13;1835094;77;22132;-63
2021/09/22 00:03:57;;;;;;;5.72;2.92;;;;;;;6.64;97.93;143891.86;1834926;77;22136;-60
2021/09/22 00:06:31;;;;;;;5.80;2.22;;;;;;;6.62;98.04;143888.14;1834992;77;22132;-58
2021/09/22 00:09:06;;;;;;;4.40;2.17;;;;;;;6.60;98.15;143883.13;1835080;77;22176;-58
2021/09/22 00:11:42;;;;;;;5.20;2.60;;;;;;;6.59;98.36;143880.66;1853655;77;22570;-63
2021/09/22 00:14:35;;;;;;;4.90;2.60;;;;;;;6.60;98.34;143881.89;1853534;77;22554;-62
2021/09/22 00:17:16;;;;;;;4.58;2.55;;;;;;;6.60;98.25;143883.13;1834161;77;22156;-60
2021/09/22 00:20:13;;;;;;;5.25;3.10;;;;;;;6.60;98.19;143883.13;1834962;77;22551;-63
2021/09/22 00:22:48;;;;;;;3.45;1.95;;;;;;;6.59;98.20;143880.66;1834998;77;22124;-61
2021/09/22 00:25:42;;;;;;;3.92;2.42;;;;;;;6.58;98.17;143878.13;1834978;77;22136;-61
2021/09/22 00:28:36;;;;;;;4.50;2.70;;;;;;;6.61;98.14;143884.38;1834950;77;22136;-60
2021/09/22 00:31:17;;;;;;;3.83;2.37;;;;;;;6.59;97.99;143879.36;1834193;77;22138;-61
2021/09/22 00:33:52;;;;;;;6.08;2.30;;;;;;;6.59;98.00;143880.66;1837791;77;27970;-59
2021/09/22 00:36:49;;;;;;;3.40;2.17;;;;;;;6.68;97.88;143903.13;1834918;77;22546;-56
2021/09/22 00:39:24;;;;;;;4.65;2.47;;;;;;;6.71;97.58;143909.38;1835025;77;22124;-62
2021/09/22 00:41:58;;;;;;;4.78;2.20;;;;;;;6.71;97.40;143909.38;1835029;77;22140;-59
2021/09/22 00:44:56;;;;;;;3.85;2.02;;;;;;;6.72;97.27;143913.16;1853534;77;22131;-62
2021/09/22 00:47:40;;;;;;;4.90;2.58;;;;;;;6.72;96.97;143913.16;1834999;77;22153;-61
2021/09/22 00:50:39;;;;;;;5.00;2.20;;;;;;;6.73;96.59;143914.39;1834935;77;22133;-60
2021/09/22 00:53:14;;;;;;;5.05;2.40;;;;;;;6.71;96.38;143910.62;1835024;77;22128;-58
2021/09/22 00:55:51;;;;;;;3.87;2.27;;;;;;;6.70;96.29;143908.12;1835012;77;22169;-64
2021/09/22 00:58:45;;;;;;;4.30;2.45;;;;;;;6.69;96.00;143905.66;1819434;77;27980;-60
2021/09/22 01:01:39;;;;;;;3.92;2.47;;;;;;;6.72;95.76;143913.16;1843425;78;22132;-62
2021/09/22 01:04:14;;;;;;;3.77;2.10;;;;;;;6.69;95.65;143905.66;1835030;77;22120;-60
2021/09/22 01:06:48;;;;;;;4.60;2.65;;;;;;;6.71;95.78;143910.62;1834884;77;22176;-64
2021/09/22 01:09:43;;;;;;;5.35;2.35;;;;;;;6.70;95.50;143908.12;1834984;77;22172;-59
2021/09/22 01:12:24;;;;;;;3.27;1.87;;;;;;;6.67;95.43;143900.64;1834197;77;22126;-60
2021/09/22 01:14:58;;;;;;;3.45;2.10;;;;;;;6.70;95.46;143908.12;1835002;77;22136;-60
2021/09/22 01:17:54;;;;;;;4.65;2.22;;;;;;;6.70;95.34;143908.12;1834918;77;22516;-62
2021/09/22 01:20:32;;;;;;;3.85;2.08;;;;;;;6.67;95.21;143900.64;1819404;77;27968;-60
2021/09/22 01:23:08;;;;;;;4.12;2.25;;;;;;;6.70;95.15;143908.12;1834920;77;22566;-57
2021/09/22 01:25:47;;;;;;;3.67;2.20;;;;;;;6.69;95.21;143904.38;1853563;77;22159;-54
2021/09/22 01:28:41;;;;;;;4.08;2.17;;;;;;;6.65;95.25;143895.63;1834909;77;22130;-62
2021/09/22 01:31:16;;;;;;;4.17;1.92;;;;;;;6.61;95.09;143885.61;1835028;77;22137;-61
2021/09/22 01:34:14;;;;;;;3.33;1.92;;;;;;;6.57;95.15;143874.41;1853526;77;22632;-59
2021/09/22 01:36:55;;;;;;;5.12;2.22;;;;;;;6.56;95.23;143871.88;1834172;77;22160;-61
2021/09/22 01:40:04;;;;;;;5.60;2.27;;;;;;;6.54;95.23;143868.16;1834969;77;22132;-60
2021/09/22 01:43:00;;;;;;;4.55;2.37;;;;;;;6.54;95.32;143868.16;1834940;77;22597;-62
2021/09/22 01:45:58;;;;;;;3.85;2.35;;;;;;;6.55;95.33;143870.62;1834926;77;22132;-62
2021/09/22 01:48:34;;;;;;;8.20;2.60;;;;;;;6.53;95.30;143866.86;1853548;77;22542;-63
2021/09/22 01:51:29;;;;;;;4.62;2.50;;;;;;;6.55;95.42;143870.62;1834840;77;22164;-60
2021/09/22 01:54:05;;;;;;;5.28;2.17;;;;;;;6.54;95.45;143868.16;1835155;77;22540;-62
2021/09/22 01:56:39;;;;;;;4.37;2.33;;;;;;;6.55;95.51;143870.62;1853561;77;22124;-62
2021/09/22 01:59:14;;;;;;;4.72;2.12;;;;;;;6.56;95.42;143871.88;1853561;77;22214;-60
2021/09/22 02:01:49;;;;;;;3.98;2.22;;;;;;;6.54;95.37;143868.16;1835020;77;22148;-61
2021/09/22 02:04:24;;;;;;;4.08;2.05;;;;;;;6.55;95.34;143870.62;1853582;77;22144;-58
2021/09/22 02:06:58;;;;;;;4.92;2.20;;;;;;;6.55;95.18;143870.62;1835152;77;22547;-58
2021/09/22 02:09:53;;;;;;;3.42;2.10;;;;;;;6.53;95.20;143866.86;1833782;77;22205;-58
2021/09/22 02:12:29;;;;;;;3.83;2.30;;;;;;;6.54;95.10;143868.16;1819514;77;28393;-61
2021/09/22 02:15:25;;;;;;;4.80;2.70;;;;;;;6.58;94.98;143878.13;1853530;77;22132;-58
2021/09/22 02:18:00;;;;;;;4.55;2.20;;;;;;;6.56;94.88;143871.88;1853549;77;22127;-60
2021/09/22 02:20:54;;;;;;;3.90;2.20;;;;;;;6.53;94.86;143865.63;1853547;77;22140;-60
2021/09/22 02:23:30;;;;;;;4.62;2.22;;;;;;;6.51;94.99;143860.61;1853548;77;22155;-60
2021/09/22 02:26:06;;;;;;;5.45;2.00;;;;;;;6.53;95.04;143865.63;1834997;77;22129;-59
2021/09/22 02:29:00;;;;;;;3.62;1.90;;;;;;;6.55;95.07;143870.62;1853605;77;22168;-63
2021/09/22 02:31:35;;;;;;;3.85;2.12;;;;;;;6.56;95.01;143871.88;1834985;77;22129;-63
2021/09/22 02:34:31;;;;;;;4.83;2.30;;;;;;;6.56;95.03;143871.88;1837858;77;38273;-64
2021/09/22 02:37:06;;;;;;;6.17;2.50;;;;;;;6.60;95.17;143883.13;1853522;77;22128;-62
2021/09/22 02:39:41;;;;;;;4.25;2.10;;;;;;;6.60;95.19;143883.13;1834973;77;22133;-63
2021/09/22 02:42:36;;;;;;;7.45;2.35;;;;;;;6.57;95.22;143874.41;1834964;77;22128;-61
2021/09/22 02:45:12;;;;;;;4.58;2.12;;;;;;;6.53;95.39;143865.63;1853539;77;22128;-59
2021/09/22 02:48:06;;;;;;;3.72;2.25;;;;;;;6.48;95.48;143853.13;1837759;77;27963;-59
2021/09/22 02:51:01;;;;;;;4.55;2.17;;;;;;;6.48;95.62;143853.13;1853481;77;22136;-57
2021/09/22 02:53:55;;;;;;;4.35;2.05;;;;;;;6.46;95.88;143848.11;1834945;77;22133;-62
2021/09/22 02:56:30;;;;;;;3.45;1.82;;;;;;;6.44;96.03;143844.39;1835086;77;22153;-58
2021/09/22 02:59:25;;;;;;;4.83;2.55;;;;;;;6.46;96.16;143848.11;1834976;77;22136;-61
2021/09/22 03:02:19;;;;;;;5.62;2.92;;;;;;;6.46;96.35;143848.11;1853517;77;22136;-64
2021/09/22 03:05:13;;;;;;;7.42;2.70;;;;;;;6.42;96.51;143838.14;1853488;77;22155;-61
2021/09/22 03:07:47;;;;;;;4.28;2.50;;;;;;;6.37;96.80;143826.89;1853513;77;22132;-62
2021/09/22 03:10:22;;;;;;;4.37;2.40;;;;;;;6.32;97.07;143814.37;1853540;77;22191;-57
2021/09/22 03:13:17;;;;;;;4.95;2.50;;;;;;;6.28;97.35;143805.66;1848166;78;22570;-61
2021/09/22 03:15:52;;;;;;;4.25;2.40;;;;;;;6.28;97.33;143804.37;1853549;77;22124;-65
2021/09/22 03:18:48;;;;;;;4.60;2.47;;;;;;;6.27;97.21;143803.13;1819310;77;27968;-62
2021/09/22 03:21:23;;;;;;;6.62;2.33;;;;;;;6.30;97.30;143810.63;1834885;77;22128;-57
2021/09/22 03:23:57;;;;;;;4.00;2.15;;;;;;;6.32;97.32;143814.37;1834995;77;22132;-63
2021/09/22 03:26:51;;;;;;;4.15;2.20;;;;;;;6.34;97.20;143818.16;1834954;77;22132;-62
2021/09/22 03:29:45;;;;;;;7.78;2.52;;;;;;;6.35;97.28;143821.88;1835040;77;22555;-56
2021/09/22 03:32:20;;;;;;;8.55;2.40;;;;;;;6.37;97.20;143825.64;1834988;77;22563;-61
2021/09/22 03:34:55;;;;;;;4.47;2.50;;;;;;;6.35;97.03;143820.64;1834991;77;22124;-60
2021/09/22 03:37:32;;;;;;;4.53;2.12;;;;;;;6.36;97.21;143823.11;1835010;77;22136;-57
2021/09/22 03:40:09;;;;;;;4.15;2.33;;;;;;;6.40;97.14;143834.37;1834984;77;22128;-58
2021/09/22 03:42:44;;;;;;;4.17;2.27;;;;;;;6.39;96.97;143830.66;1834971;77;22124;-64
2021/09/22 03:45:39;;;;;;;5.90;2.27;;;;;;;6.35;96.98;143821.88;1834897;77;22551;-63
2021/09/22 03:48:14;;;;;;;4.28;2.33;;;;;;;6.36;97.02;143823.11;1853545;77;22535;-57
2021/09/22 03:50:49;;;;;;;6.10;2.42;;;;;;;6.37;96.95;143825.64;1834956;77;22124;-58
2021/09/22 03:53:23;;;;;;;5.05;2.45;;;;;;;6.39;96.96;143831.89;1835110;77;22132;-61
2021/09/22 03:56:18;;;;;;;4.95;2.45;;;;;;;6.38;96.94;143828.13;1834905;77;22132;-55
2021/09/22 03:58:53;;;;;;;4.80;2.30;;;;;;;6.38;97.00;143828.13;1834986;77;22543;-58
2021/09/22 04:01:48;;;;;;;3.72;2.22;;;;;;;6.34;97.06;143819.39;1853430;77;22582;-62
2021/09/22 04:04:23;;;;;;;5.70;2.50;;;;;;;6.35;97.15;143820.64;1834982;77;22543;-59
2021/09/22 04:06:58;;;;;;;5.95;2.80;;;;;;;6.36;97.14;143824.41;1853579;77;22156;-58
2021/09/22 04:09:53;;;;;;;4.70;2.20;;;;;;;6.36;97.09;143823.11;1785359;79;28040;-64
2021/09/22 04:12:29;;;;;;;4.75;2.22;;;;;;;6.45;97.20;143845.63;1819258;77;28399;-60
2021/09/22 04:15:05;;;;;;;4.12;2.45;;;;;;;6.50;96.98;143858.13;1835019;77;22128;-61
2021/09/22 04:18:00;;;;;;;3.90;2.12;;;;;;;6.48;96.84;143853.13;1834892;77;22566;-60
2021/09/22 04:20:35;;;;;;;3.90;2.17;;;;;;;6.47;96.93;143850.64;1834991;77;22554;-59
2021/09/22 04:23:10;;;;;;;4.25;2.22;;;;;;;6.48;97.06;143853.13;1853576;77;22128;-58
2021/09/22 04:25:45;;;;;;;5.85;3.00;;;;;;;6.50;96.88;143858.13;1834976;77;22132;-60
2021/09/22 04:28:42;;;;;;;5.33;2.67;;;;;;;6.47;96.89;143851.87;1853524;77;22147;-60
2021/09/22 04:31:17;;;;;;;4.35;2.83;;;;;;;6.45;96.99;143845.63;1834998;77;22555;-59
2021/09/22 04:33:52;;;;;;;7.37;3.08;;;;;;;6.40;97.16;143834.37;1823984;77;22167;-68
2021/09/22 04:37:07;;;;;;;5.25;3.25;;;;;;;6.33;97.48;143815.62;1818992;77;22176;-62
2021/09/22 04:39:43;;;;;;;4.90;2.92;;;;;;;6.30;97.70;143810.63;1804685;77;28120;-58
2021/09/22 04:42:18;;;;;;;5.25;3.02;;;;;;;6.34;97.74;143818.16;1818638;77;22176;-63
2021/09/22 04:45:36;;;;;;;6.33;3.22;;;;;;;6.34;97.88;143818.16;1818964;77;22195;-60
2021/09/22 04:48:13;;;;;;;4.53;2.80;;;;;;;6.34;98.01;143818.16;1809565;77;22254;-58
2021/09/22 04:51:15;;;;;;;4.87;3.17;;;;;;;6.33;98.20;143815.62;1815988;77;22187;-58
2021/09/22 04:53:50;;;;;;;7.62;2.90;;;;;;;6.34;98.30;143818.16;1831414;77;22587;-58
2021/09/22 04:56:25;;;;;;;5.15;3.10;;;;;;;6.35;98.29;143820.64;1834898;77;22116;-66
2021/09/22 04:59:37;;;;;;;5.28;2.92;;;;;;;6.32;98.35;143813.16;1818972;77;22196;-64
2021/09/22 05:02:56;;;;;;;4.78;2.90;;;;;;;6.36;98.41;143823.11;1815350;77;22204;-63
2021/09/22 05:05:30;;;;;;;5.97;3.17;;;;;;;6.33;98.17;143816.88;1832458;77;22575;-60
2021/09/22 05:08:44;;;;;;;5.80;3.17;;;;;;;6.37;98.34;143826.89;1813226;77;22215;-61
2021/09/22 05:11:26;;;;;;;7.70;3.00;;;;;;;6.39;98.21;143830.66;1853523;77;22155;-58
2021/09/22 05:14:00;;;;;;;6.40;3.25;;;;;;;6.40;98.16;143834.37;1837786;77;28032;-61
2021/09/22 05:16:35;;;;;;;4.75;3.10;;;;;;;6.45;97.96;143845.63;1834978;77;22132;-62
2021/09/22 05:19:13;;;;;;;5.90;3.35;;;;;;;6.48;98.03;143854.36;1807550;77;22254;-64
2021/09/22 05:21:48;;;;;;;5.70;2.90;;;;;;;6.49;97.69;143856.89;1809026;77;22599;-58
2021/09/22 05:25:01;;;;;;;6.05;3.02;;;;;;;6.46;97.29;143848.11;1822940;77;22144;-58
2021/09/22 05:27:36;;;;;;;5.70;3.20;;;;;;;6.44;97.51;143844.39;1826892;77;22124;-61
2021/09/22 05:30:12;;;;;;;6.97;3.22;;;;;;;6.47;97.68;143850.64;1820443;77;22139;-61
2021/09/22 05:33:24;;;;;;;4.22;2.55;;;;;;;6.50;97.36;143858.13;1852569;77;22205;-62
2021/09/22 05:36:06;;;;;;;8.50;3.52;;;;;;;6.50;97.00;143859.38;1816919;77;22198;-59
2021/09/22 05:39:21;;;;;;;8.43;3.27;;;;;;;6.49;96.84;143855.66;1816334;77;22251;-64
2021/09/22 05:42:35;;;;;;;6.03;3.65;;;;;;;6.53;96.92;143865.63;1819187;77;22191;-61
2021/09/22 05:45:47;;;;;;;5.25;2.90;;;;;;;6.55;96.69;143869.39;1815389;77;22286;-63
2021/09/22 05:48:28;;;;;;;6.17;3.15;;;;;;;6.56;96.40;143873.11;1815864;77;22147;-60
2021/09/22 05:51:48;;;;;;;6.05;3.35;;;;;;;6.60;96.31;143883.13;1816177;77;22172;-61
2021/09/22 05:54:23;;;;;;;7.62;3.42;;;;;;;6.55;96.06;143870.62;1821424;77;22135;-60
2021/09/22 05:57:37;;;;;;;4.08;2.37;;;;;;;6.59;96.15;143880.66;1834502;77;22593;-58
2021/09/22 06:00:31;;;;;;;8.00;3.50;;;;;;;6.66;96.02;143898.13;1825934;77;22253;-63
2021/09/22 06:03:10;;;;;;;7.12;2.98;;;;;;;6.74;96.03;143918.16;1853633;77;22155;-58
2021/09/22 06:05:49;;;;;;;5.47;2.98;;;;;;;6.81;95.34;143933.14;1853545;77;22641;-61
2021/09/22 06:08:24;;;;;;;5.40;3.17;;;;;;;6.77;94.92;143923.13;1843451;77;22582;-60
2021/09/22 06:11:18;;;;;;;6.12;2.80;;;;;;;6.78;95.09;143925.66;1827338;77;22201;-59
2021/09/22 06:14:13;;;;;;;5.22;2.70;;;;;;;6.84;94.90;143940.63;1853107;77;22144;-58
2021/09/22 06:16:51;;;;;;;4.85;2.95;;;;;;;6.86;94.56;143945.64;1834339;77;22132;-58
2021/09/22 06:19:25;;;;;;;5.28;3.08;;;;;;;6.86;94.38;143945.64;1826514;77;22168;-60
2021/09/22 06:22:00;;;;;;;5.42;3.12;;;;;;;6.85;94.22;143943.16;1834987;77;22128;-63
2021/09/22 06:24:35;;;;;;;7.15;3.17;;;;;;;6.83;94.16;143938.16;1834369;77;22192;-61
2021/09/22 06:27:29;;;;;;;4.75;2.80;;;;;;;6.86;94.09;143945.64;1834848;77;22199;-62
2021/09/22 06:30:06;;;;;;;5.00;3.00;;;;;;;6.86;94.02;143946.88;1853546;77;22132;-57
2021/09/22 06:33:01;;;;;;;6.20;2.83;;;;;;;6.86;93.79;143945.64;1853610;77;22136;-58
2021/09/22 06:36:04;;;;;;;6.12;3.25;;;;;;;6.92;93.74;143961.92;1834125;77;22611;-60
2021/09/22 06:38:58;;;;;;;6.62;2.90;;;;;;;6.99;93.74;143978.16;1819845;77;22206;-63
2021/09/22 06:41:52;;;;;;;5.35;3.10;;;;;;;7.06;93.29;143994.42;1834964;77;22555;-58
2021/09/22 06:44:27;;;;;;;4.50;2.70;;;;;;;7.10;93.10;144004.45;1835064;77;22129;-58
2021/09/22 06:47:02;;;;;;;4.70;2.70;;;;;;;7.11;92.79;144008.17;1835016;77;22129;-59
2021/09/22 06:49:37;;;;;;;4.67;2.75;;;;;;;7.18;92.67;144024.44;1848254;78;22123;-62
2021/09/22 06:52:14;;;;;;;5.40;2.80;;;;;;;7.15;91.99;144018.19;1800829;79;22148;-64
2021/09/22 06:54:49;;;;;;;8.83;2.98;;;;;;;7.12;92.04;144010.70;1853632;77;22214;-58
2021/09/22 06:57:24;;;;;;;4.70;2.75;;;;;;;7.12;91.85;144010.70;1853642;77;22578;-59
2021/09/22 07:00:21;;;;;;;5.20;2.55;;;;;;;7.10;91.58;144004.45;1853515;77;22135;-57
2021/09/22 07:02:56;;;;;;;6.05;2.85;;;;;;;7.10;91.12;144005.69;1835058;77;22562;-60
2021/09/22 07:05:50;;;;;;;9.93;3.10;;;;;;;7.14;90.96;144015.66;1834976;77;22125;-64
2021/09/22 07:08:25;;;;;;;9.38;4.10;;;;;;;7.21;91.02;144030.70;1853574;77;22151;-63
2021/09/22 07:11:00;;;;;;;5.12;2.87;;;;;;;7.28;90.98;144049.47;1835040;77;22160;-66
2021/09/22 07:13:37;;;;;;;5.83;3.12;;;;;;;7.38;90.83;144073.23;1835049;77;22124;-58
2021/09/22 07:16:31;;;;;;;4.00;2.50;;;;;;;7.41;90.18;144080.73;1835077;77;20203;-62
2021/09/22 07:19:06;;;;;;;6.08;2.95;;;;;;;7.42;90.08;144083.22;1853553;77;22151;-61
2021/09/22 07:22:00;;;;;;;5.67;3.02;;;;;;;7.47;89.41;144095.72;1853538;77;22140;-61
2021/09/22 07:25:00;;;;;;;4.87;2.87;;;;;;;7.41;88.55;144079.48;1834173;77;22587;-55
2021/09/22 07:27:36;;;;;;;6.45;3.80;;;;;;;7.37;88.64;144071.95;1834967;77;22124;-60
2021/09/22 07:30:16;;;;;;;5.28;2.52;;;;;;;7.39;88.42;144075.72;1819406;77;28445;-61
2021/09/22 07:32:51;;;;;;;8.03;3.05;;;;;;;7.44;88.34;144088.23;1853650;77;22124;-62
2021/09/22 07:35:27;;;;;;;5.95;2.72;;;;;;;7.46;88.37;144092.00;1853581;77;22168;-64
2021/09/22 07:38:21;;;;;;;7.37;2.95;;;;;;;7.43;88.41;144085.75;1834966;77;22559;-60
2021/09/22 07:40:58;;;;;;;4.53;2.72;;;;;;;7.46;88.33;144092.00;1853560;77;22160;-61
2021/09/22 07:43:33;;;;;;;5.35;2.85;;;;;;;7.52;88.33;144108.23;1853581;77;22554;-60
2021/09/22 07:46:28;;;;;;;7.00;3.05;;;;;;;7.65;88.16;144138.28;1835004;77;22598;-60
2021/09/22 07:49:03;;;;;;;7.75;3.42;;;;;;;7.71;87.82;144154.56;1835038;77;22128;-67
2021/09/22 07:52:04;;;;;;;7.42;3.27;;;;;;;7.74;87.73;144160.81;1834157;77;22156;-68
2021/09/22 07:54:40;;;;;;;7.00;2.95;;;;;;;7.74;87.88;144160.81;1819426;77;27946;-60
2021/09/22 07:57:34;;;;;;;5.80;3.12;;;;;;;7.79;87.62;144173.33;1835012;77;22140;-55
2021/09/22 08:00:28;;;;;;;5.33;3.20;;;;;;;7.72;87.33;144157.05;1853529;77;22158;-63
2021/09/22 08:03:08;;;;;;;5.55;3.08;;;;;;;7.71;87.41;144153.27;1834273;77;22161;-58
2021/09/22 08:05:43;;;;;;;5.15;3.20;;;;;;;7.72;87.24;144157.05;1835019;77;22128;-60
2021/09/22 08:08:18;;;;;;;6.83;3.40;;;;;;;7.72;87.35;144155.80;1853575;77;22120;-59
2021/09/22 08:10:53;;;;;;;6.35;3.37;;;;;;;7.72;87.49;144155.80;1835042;77;22136;-62
2021/09/22 08:13:28;;;;;;;6.70;3.37;;;;;;;7.72;87.39;144155.80;1835003;77;22152;-64
2021/09/22 08:16:03;;;;;;;9.25;3.80;;;;;;;7.68;87.20;144147.02;1835008;77;22124;-61
2021/09/22 08:18:57;;;;;;;8.20;2.80;;;;;;;7.75;86.99;144163.30;1835053;77;22136;-65
2021/09/22 08:21:32;;;;;;;13.58;3.17;;;;;;;7.73;86.06;144159.53;1853566;77;22127;-63
2021/09/22 08:24:26;;;;;;;5.10;2.70;;;;;;;7.69;86.01;144148.30;1853536;77;22547;-62
2021/09/22 08:27:03;;;;;;;4.47;2.83;;;;;;;7.72;86.12;144155.80;1835030;77;22124;-61
2021/09/22 08:29:59;;;;;;;5.17;2.65;;;;;;;7.83;85.78;144183.31;1834885;77;22201;-62
2021/09/22 08:32:34;;;;;;;5.05;2.77;;;;;;;7.88;85.36;144195.83;1853543;77;22587;-60
2021/09/22 08:35:29;;;;;;;7.65;3.05;;;;;;;7.93;85.55;144208.34;1800705;79;22207;-61
2021/09/22 08:38:03;;;;;;;5.55;2.27;;;;;;;8.03;85.60;144232.13;1819406;77;27974;-58
2021/09/22 08:40:38;;;;;;;4.97;2.15;;;;;;;8.13;84.50;144255.92;1853627;77;22132;-59
2021/09/22 08:43:14;;;;;;;4.28;2.20;;;;;;;8.11;84.10;144252.14;1834997;77;22132;-59
2021/09/22 08:45:49;;;;;;;5.08;2.50;;;;;;;8.04;83.80;144235.91;1837831;77;27948;-60
2021/09/22 08:48:43;;;;;;;5.90;2.50;;;;;;;8.00;83.83;144225.88;1853635;77;22128;-63
2021/09/22 08:51:18;;;;;;;7.37;3.15;;;;;;;7.90;84.16;144200.84;1835010;77;22152;-62
2021/09/22 08:53:53;;;;;;;10.32;3.72;;;;;;;7.88;84.68;144194.58;1835009;77;22124;-63
2021/09/22 08:56:28;;;;;;;8.88;3.60;;;;;;;7.85;85.38;144187.08;1835039;77;22129;-56
2021/09/22 08:59:05;;;;;;;6.67;3.50;;;;;;;7.80;86.22;144175.81;1835019;77;22203;-64
2021/09/22 09:02:18;;;;;;;6.22;3.77;;;;;;;7.74;86.86;144160.81;1819362;77;28436;-57
2021/09/22 09:05:16;;;;;;;5.33;3.27;;;;;;;7.67;87.48;144143.28;1834966;77;22185;-60
2021/09/22 09:07:58;;;;;;;6.72;4.50;;;;;;;7.58;87.85;144123.28;1853542;77;22123;-60
2021/09/22 09:10:35;;;;;;;8.40;4.50;;;;;;;7.45;88.44;144090.72;1834998;77;22570;-64
2021/09/22 09:13:12;;;;;;;6.62;4.37;;;;;;;7.34;89.05;144064.45;1834978;77;22124;-61
2021/09/22 09:15:48;;;;;;;9.10;4.80;;;;;;;7.20;89.80;144029.45;1834817;77;22575;-63
2021/09/22 09:18:25;;;;;;;8.93;5.12;;;;;;;7.12;90.17;144010.70;1834971;77;22161;-60
2021/09/22 09:21:01;;;;;;;9.55;5.35;;;;;;;7.21;90.45;144031.94;1834769;77;22566;-60
2021/09/22 09:23:55;;;;;;;8.25;4.92;;;;;;;7.43;90.34;144085.75;1853572;77;22203;-59
2021/09/22 09:26:45;;;;;;;8.98;4.87;;;;;;;7.80;89.76;144177.05;1835046;77;22125;-59
2021/09/22 09:29:41;;;;;;;8.40;4.20;;;;;;;8.21;88.18;144275.94;1834980;77;22136;-61
2021/09/22 09:32:35;;;;;;;10.50;3.92;;;;;;;8.46;86.27;144337.34;1835116;77;22120;-57
2021/09/22 09:35:25;;;;;;;6.10;4.20;;;;;;;8.60;85.46;144372.41;1835176;77;22140;-61
2021/09/22 09:37:59;;;;;;;7.85;4.30;;;;;;;8.64;84.51;144381.16;1835340;77;22151;-61
2021/09/22 09:40:53;;;;;;;5.55;3.30;;;;;;;8.58;84.00;144367.39;1853615;77;22155;-59
2021/09/22 09:43:27;;;;;;;7.97;3.70;;;;;;;8.45;82.81;144334.84;1835031;77;22136;-59
2021/09/22 09:46:03;;;;;;;7.83;4.75;;;;;;;8.37;83.18;144316.03;1835120;77;22169;-63
2021/09/22 09:48:38;;;;;;;5.62;3.80;;;;;;;8.27;83.29;144290.98;1819418;77;28435;-58
2021/09/22 09:51:15;;;;;;;6.75;3.90;;;;;;;8.26;83.71;144288.45;1853563;77;22132;-62
2021/09/22 09:53:50;;;;;;;5.55;3.50;;;;;;;8.22;83.78;144278.47;1853579;77;22131;-60
2021/09/22 09:56:29;;;;;;;9.60;4.90;;;;;;;8.17;83.97;144265.95;1853564;77;22136;-64
2021/09/22 09:59:04;;;;;;;7.08;4.03;;;;;;;8.18;84.21;144269.67;1835132;77;22128;-64
2021/09/22 10:01:58;;;;;;;6.97;3.90;;;;;;;8.23;84.11;144280.95;1835106;77;22164;-64
2021/09/22 10:04:33;;;;;;;6.90;4.30;;;;;;;8.29;84.20;144294.72;1835054;77;22155;-63
2021/09/22 10:07:30;;;;;;;6.25;4.30;;;;;;;8.31;83.93;144300.97;1835095;77;22168;-62
2021/09/22 10:10:08;;;;;;;8.55;4.83;;;;;;;8.35;83.79;144311.00;1834918;77;22152;-60
2021/09/22 10:13:02;;;;;;;7.78;5.15;;;;;;;8.43;83.56;144331.08;1837910;77;38302;-60
2021/09/22 10:15:40;;;;;;;7.65;5.30;;;;;;;8.48;83.14;144343.59;1835009;77;22124;-63
2021/09/22 10:18:18;;;;;;;7.70;5.47;;;;;;;8.43;83.08;144329.83;1835028;77;22124;-64
2021/09/22 10:21:15;;;;;;;9.35;5.45;;;;;;;8.51;83.17;144348.61;1834955;77;22200;-64
2021/09/22 10:23:52;;;;;;;7.85;5.17;;;;;;;8.71;83.00;144397.45;1853530;77;22124;-63
2021/09/22 10:26:28;;;;;;;9.93;5.15;;;;;;;9.04;82.05;144478.87;1853576;77;22123;-63
2021/09/22 10:29:28;;;;;;;9.53;5.28;;;;;;;9.32;80.87;144547.77;1835136;77;22124;-61
2021/09/22 10:32:05;;;;;;;9.23;5.30;;;;;;;9.40;78.69;144566.56;1835005;77;22558;-58
2021/09/22 10:35:27;;;;;;;7.83;5.30;;;;;;;9.28;78.09;144538.97;1834940;77;22132;-60
2021/09/22 10:38:23;;;;;;;9.50;5.30;;;;;;;9.17;78.54;144511.42;1835003;77;22152;-62
2021/09/22 10:41:28;;;;;;;10.23;4.95;;;;;;;8.99;78.78;144466.34;1834407;77;22132;-57
2021/09/22 10:44:04;;;;;;;8.35;4.85;;;;;;;8.83;79.13;144428.77;1835059;77;22125;-63
2021/09/22 10:47:25;;;;;;;8.10;4.40;;;;;;;8.71;79.99;144397.45;1834929;77;22132;-63
2021/09/22 10:50:01;;;;;;;9.68;5.17;;;;;;;8.60;80.68;144372.41;1853593;77;22124;-65
2021/09/22 10:52:55;;;;;;;8.80;4.85;;;;;;;8.52;81.11;144351.09;1834980;77;22191;-63
2021/09/22 10:56:24;;;;;;;7.22;4.35;;;;;;;8.47;81.75;144339.81;1834921;77;22136;-63
2021/09/22 10:59:06;;;;;;;11.93;6.92;;;;;;;8.59;81.90;144368.64;1834979;77;22132;-60
2021/09/22 11:02:01;;;;;;;13.05;4.72;;;;;;;8.69;81.68;144393.69;1853591;77;22135;-64
2021/09/22 11:05:01;;;;;;;7.55;3.92;;;;;;;8.81;81.50;144423.75;1835022;77;22165;-62
2021/09/22 11:07:59;;;;;;;7.10;3.35;;;;;;;8.93;81.01;144451.28;1835086;77;22156;-62
2021/09/22 11:10:54;;;;;;;7.15;3.77;;;;;;;8.89;80.25;144443.78;1835001;77;22128;-61
2021/09/22 11:13:34;;;;;;;7.53;3.62;;;;;;;8.85;79.86;144432.50;1834985;77;22124;-58
2021/09/22 11:16:13;;;;;;;6.67;3.72;;;;;;;8.80;79.82;144421.25;1853552;77;22124;-64
2021/09/22 11:18:51;;;;;;;6.58;3.50;;;;;;;8.69;80.07;144394.92;1834940;77;22197;-58
2021/09/22 11:21:47;;;;;;;7.55;4.15;;;;;;;8.61;80.44;144373.66;1827702;77;27969;-58
2021/09/22 11:24:28;;;;;;;10.48;3.40;;;;;;;8.68;80.93;144392.44;1834994;77;22148;-61
2021/09/22 11:27:09;;;;;;;6.95;3.87;;;;;;;8.80;81.14;144421.25;1834891;77;22575;-58
2021/09/22 11:29:53;;;;;;;8.63;4.85;;;;;;;8.99;81.00;144467.58;1835117;77;22185;-59
2021/09/22 11:32:48;;;;;;;9.88;4.97;;;;;;;9.10;80.19;144495.13;1834965;77;22136;-59
2021/09/22 11:35:48;;;;;;;8.53;5.55;;;;;;;8.98;79.51;144463.81;1834111;77;22254;-59
2021/09/22 11:38:26;;;;;;;8.38;4.83;;;;;;;8.81;79.58;144422.50;1835000;77;22164;-61
2021/09/22 11:41:02;;;;;;;7.15;4.87;;;;;;;8.64;80.36;144382.41;1835129;77;22125;-61
2021/09/22 11:43:37;;;;;;;10.28;5.25;;;;;;;8.51;80.84;144348.61;1835048;77;20449;-61
2021/09/22 11:46:19;;;;;;;8.60;5.05;;;;;;;8.42;81.41;144328.59;1834172;77;22256;-58
2021/09/22 11:49:13;;;;;;;7.67;4.35;;;;;;;8.39;81.91;144321.05;1835008;77;22180;-59
2021/09/22 11:52:05;;;;;;;8.53;5.33;;;;;;;8.37;82.06;144316.03;1835000;77;22124;-62
2021/09/22 11:55:03;;;;;;;9.65;4.58;;;;;;;8.33;82.18;144305.98;1835165;77;22136;-64
2021/09/22 11:57:57;;;;;;;7.08;4.60;;;;;;;8.25;82.35;144287.20;1834974;77;22136;-66
2021/09/22 12:00:55;;;;;;;7.35;4.62;;;;;;;8.20;82.58;144274.69;1834987;77;22129;-57
2021/09/22 12:03:34;;;;;;;8.55;4.60;;;;;;;8.22;82.64;144279.70;1835063;77;22164;-58
2021/09/22 12:06:29;;;;;;;7.22;4.87;;;;;;;8.30;82.59;144298.48;1853598;77;22167;-58
2021/09/22 12:09:06;;;;;;;9.70;4.90;;;;;;;8.37;82.46;144316.03;1835069;77;22155;-59
2021/09/22 12:11:42;;;;;;;6.08;4.42;;;;;;;8.40;82.28;144322.33;1834938;77;22128;-62
2021/09/22 12:14:27;;;;;;;13.88;4.95;;;;;;;8.42;81.91;144328.59;1879472;76;22121;-58
2021/09/22 12:17:08;;;;;;;7.95;4.97;;;;;;;8.47;82.06;144341.11;1834998;77;22608;-58
2021/09/22 12:20:07;;;;;;;7.40;4.60;;;;;;;8.53;82.09;144353.63;1853586;77;22190;-65
2021/09/22 12:23:04;;;;;;;10.60;4.75;;;;;;;8.54;81.84;144356.13;1853521;77;22562;-57
2021/09/22 12:25:39;;;;;;;7.22;4.58;;;;;;;8.58;81.74;144367.39;1834966;77;22564;-58
2021/09/22 12:28:23;;;;;;;9.15;5.75;;;;;;;8.56;81.52;144361.13;1835019;77;22570;-61
2021/09/22 12:30:56;;;;;;;7.80;4.62;;;;;;;8.47;81.72;144341.11;1834981;77;22124;-65
2021/09/22 12:33:30;;;;;;;8.30;4.58;;;;;;;8.41;81.91;144326.06;1835026;77;22125;-60
2021/09/22 12:36:13;;;;;;;7.22;4.28;;;;;;;8.40;82.29;144323.56;1853513;77;22151;-58
2021/09/22 12:38:54;;;;;;;7.12;4.67;;;;;;;8.38;82.39;144318.50;1834978;77;22128;-60
2021/09/22 12:41:30;;;;;;;10.20;4.67;;;;;;;8.41;82.34;144326.06;1834996;77;22129;-62
2021/09/22 12:44:05;;;;;;;9.75;4.67;;;;;;;8.38;82.15;144318.50;1834898;77;22237;-63
2021/09/22 12:46:40;;;;;;;6.83;4.10;;;;;;;8.36;82.33;144312.25;1835012;77;22124;-57
2021/09/22 12:49:34;;;;;;;7.45;4.05;;;;;;;8.38;82.40;144318.50;1834876;77;22137;-58
2021/09/22 12:52:14;;;;;;;6.78;3.92;;;;;;;8.38;82.22;144318.50;1835057;77;22128;-65
2021/09/22 12:54:49;;;;;;;6.53;3.50;;;;;;;8.38;82.25;144317.27;1835002;77;22156;-62
2021/09/22 12:57:45;;;;;;;9.15;3.80;;;;;;;8.36;82.30;144313.48;1834926;77;22161;-58